sensor_id;sensor_type;location;lat;lon;timestamp;pressure;altitude;pressure_sealevel;temperature;humidity
64023;BME280;50264;52.088;5.296;2023-03-13T00:01:47;100127.0;;;9.83;98.64
64023;BME280;50264;52.088;5.296;2023-03-13T00:03:26;100119.0;;;9.89;98.38
64023;BME280;50264;52.088;5.296;2023-03-13T00:05:03;100113.0;;;10.0;97.97
64023;BME280;50264;52.088;5.296;2023-03-13T00:06:40;100097.0;;;9.96;98.2
64023;BME280;50264;52.088;5.296;2023-03-13T00:09:53;100090.0;;;9.92;98.72
64023;BME280;50264;52.088;5.296;2023-03-13T00:11:30;100088.0;;;9.89;98.65
64023;BME280;50264;52.088;5.296;2023-03-13T00:13:07;100078.0;;;9.83;98.95
64023;BME280;50264;52.088;5.296;2023-03-13T00:16:21;100084.0;;;9.84;99.07
64023;BME280;50264;52.088;5.296;2023-03-13T00:17:58;100083.0;;;9.92;98.81
64023;BME280;50264;52.088;5.296;2023-03-13T00:19:35;100082.0;;;9.89;99.19
64023;BME280;50264;52.088;5.296;2023-03-13T00:22:48;100075.0;;;9.98;98.7
64023;BME280;50264;52.088;5.296;2023-03-13T00:24:24;100065.0;;;9.98;98.8
64023;BME280;50264;52.088;5.296;2023-03-13T00:26:02;100063.0;;;9.94;99.47
64023;BME280;50264;52.088;5.296;2023-03-13T00:27:41;100053.0;;;9.96;100.0
64023;BME280;50264;52.088;5.296;2023-03-13T00:31:00;100050.0;;;9.98;100.0
64023;BME280;50264;52.088;5.296;2023-03-13T00:32:41;100051.0;;;9.93;100.0
64023;BME280;50264;52.088;5.296;2023-03-13T00:34:19;100041.0;;;9.91;100.0
64023;BME280;50264;52.088;5.296;2023-03-13T00:35:57;100030.0;;;10.03;100.0
64023;BME280;50264;52.088;5.296;2023-03-13T00:39:11;100026.0;;;9.97;100.0
64023;BME280;50264;52.088;5.296;2023-03-13T00:40:47;100016.0;;;9.93;100.0
64023;BME280;50264;52.088;5.296;2023-03-13T00:42:23;100002.0;;;10.02;100.0
64023;BME280;50264;52.088;5.296;2023-03-13T00:45:38;100001.0;;;9.92;100.0
64023;BME280;50264;52.088;5.296;2023-03-13T00:47:14;99998.0;;;9.91;100.0
64023;BME280;50264;52.088;5.296;2023-03-13T00:48:51;99993.0;;;9.81;100.0
64023;BME280;50264;52.088;5.296;2023-03-13T00:52:05;99985.0;;;9.81;100.0
64023;BME280;50264;52.088;5.296;2023-03-13T00:53:42;99981.0;;;9.77;100.0
64023;BME280;50264;52.088;5.296;2023-03-13T00:55:20;99978.0;;;9.82;100.0
64023;BME280;50264;52.088;5.296;2023-03-13T00:56:56;99976.0;;;9.86;100.0
64023;BME280;50264;52.088;5.296;2023-03-13T01:00:12;99971.0;;;9.93;100.0
64023;BME280;50264;52.088;5.296;2023-03-13T01:01:49;99958.0;;;9.92;100.0
64023;BME280;50264;52.088;5.296;2023-03-13T01:03:25;99949.0;;;9.93;100.0
64023;BME280;50264;52.088;5.296;2023-03-13T01:06:40;99945.0;;;9.96;100.0
64023;BME280;50264;52.088;5.296;2023-03-13T01:08:17;99944.0;;;10.02;100.0
64023;BME280;50264;52.088;5.296;2023-03-13T01:09:54;99935.0;;;9.85;100.0
64023;BME280;50264;52.088;5.296;2023-03-13T01:11:33;99931.0;;;9.99;100.0
64023;BME280;50264;52.088;5.296;2023-03-13T01:14:48;99928.0;;;9.98;100.0
64023;BME280;50264;52.088;5.296;2023-03-13T01:16:27;99925.0;;;10.05;100.0
64023;BME280;50264;52.088;5.296;2023-03-13T01:18:04;99931.0;;;10.08;100.0
64023;BME280;50264;52.088;5.296;2023-03-13T01:21:18;99916.0;;;10.14;100.0
64023;BME280;50264;52.088;5.296;2023-03-13T01:22:57;99918.0;;;10.0;100.0
64023;BME280;50264;52.088;5.296;2023-03-13T01:24:34;99914.0;;;10.05;100.0
64023;BME280;50264;52.088;5.296;2023-03-13T01:26:10;99905.0;;;9.96;100.0
64023;BME280;50264;52.088;5.296;2023-03-13T01:29:24;99902.0;;;9.98;100.0
64023;BME280;50264;52.088;5.296;2023-03-13T01:31:09;99895.0;;;10.06;100.0
64023;BME280;50264;52.088;5.296;2023-03-13T01:32:47;99886.0;;;10.02;100.0
64023;BME280;50264;52.088;5.296;2023-03-13T01:36:00;99882.0;;;10.06;100.0
64023;BME280;50264;52.088;5.296;2023-03-13T01:37:37;99876.0;;;10.09;100.0
64023;BME280;50264;52.088;5.296;2023-03-13T01:39:13;99871.0;;;10.1;100.0
64023;BME280;50264;52.088;5.296;2023-03-13T01:40:49;99861.0;;;10.08;100.0
64023;BME280;50264;52.088;5.296;2023-03-13T01:44:02;99853.0;;;10.05;100.0
64023;BME280;50264;52.088;5.296;2023-03-13T01:46:12;99850.0;;;10.07;100.0
64023;BME280;50264;52.088;5.296;2023-03-13T01:47:53;99844.0;;;10.13;100.0
64023;BME280;50264;52.088;5.296;2023-03-13T01:49:30;99836.0;;;10.14;100.0
64023;BME280;50264;52.088;5.296;2023-03-13T01:52:51;99841.0;;;10.18;100.0
64023;BME280;50264;52.088;5.296;2023-03-13T01:54:31;99836.0;;;10.23;100.0
64023;BME280;50264;52.088;5.296;2023-03-13T01:56:16;99843.0;;;10.25;100.0
64023;BME280;50264;52.088;5.296;2023-03-13T01:57:55;99824.0;;;10.28;100.0
64023;BME280;50264;52.088;5.296;2023-03-13T02:01:19;99817.0;;;10.25;100.0
64023;BME280;50264;52.088;5.296;2023-03-13T02:02:57;99821.0;;;10.27;100.0
64023;BME280;50264;52.088;5.296;2023-03-13T02:04:40;99807.0;;;10.36;100.0
64023;BME280;50264;52.088;5.296;2023-03-13T02:06:22;99794.0;;;10.4;100.0
64023;BME280;50264;52.088;5.296;2023-03-13T02:08:00;99798.0;;;10.37;100.0
64023;BME280;50264;52.088;5.296;2023-03-13T02:11:28;99789.0;;;10.39;100.0
64023;BME280;50264;52.088;5.296;2023-03-13T02:13:07;99775.0;;;10.46;100.0
64023;BME280;50264;52.088;5.296;2023-03-13T02:14:44;99768.0;;;10.53;100.0
64023;BME280;50264;52.088;5.296;2023-03-13T02:16:22;99757.0;;;10.55;100.0
64023;BME280;50264;52.088;5.296;2023-03-13T02:19:39;99757.0;;;10.45;100.0
64023;BME280;50264;52.088;5.296;2023-03-13T02:21:28;99746.0;;;10.51;100.0
64023;BME280;50264;52.088;5.296;2023-03-13T02:23:17;99744.0;;;10.53;100.0
64023;BME280;50264;52.088;5.296;2023-03-13T02:25:02;99740.0;;;10.58;100.0
64023;BME280;50264;52.088;5.296;2023-03-13T02:28:23;99734.0;;;10.71;100.0
64023;BME280;50264;52.088;5.296;2023-03-13T02:30:01;99734.0;;;10.67;100.0
64023;BME280;50264;52.088;5.296;2023-03-13T02:31:38;99731.0;;;10.73;100.0
64023;BME280;50264;52.088;5.296;2023-03-13T02:33:15;99728.0;;;10.88;100.0
64023;BME280;50264;52.088;5.296;2023-03-13T02:36:32;99719.0;;;10.87;100.0
64023;BME280;50264;52.088;5.296;2023-03-13T02:38:12;99719.0;;;10.93;100.0
64023;BME280;50264;52.088;5.296;2023-03-13T02:39:51;99720.0;;;10.93;100.0
64023;BME280;50264;52.088;5.296;2023-03-13T02:41:28;99717.0;;;10.95;100.0
64023;BME280;50264;52.088;5.296;2023-03-13T02:44:50;99720.0;;;11.07;100.0
64023;BME280;50264;52.088;5.296;2023-03-13T02:46:26;99717.0;;;10.92;100.0
64023;BME280;50264;52.088;5.296;2023-03-13T02:48:02;99709.0;;;10.9;100.0
64023;BME280;50264;52.088;5.296;2023-03-13T02:51:17;99707.0;;;10.98;100.0
64023;BME280;50264;52.088;5.296;2023-03-13T02:53:00;99707.0;;;10.97;100.0
64023;BME280;50264;52.088;5.296;2023-03-13T02:54:40;99703.0;;;11.09;100.0
64023;BME280;50264;52.088;5.296;2023-03-13T02:56:21;99700.0;;;11.09;100.0
64023;BME280;50264;52.088;5.296;2023-03-13T02:59:35;99708.0;;;11.15;100.0
64023;BME280;50264;52.088;5.296;2023-03-13T03:01:11;99710.0;;;11.15;100.0
64023;BME280;50264;52.088;5.296;2023-03-13T03:02:47;99711.0;;;11.25;100.0
64023;BME280;50264;52.088;5.296;2023-03-13T03:06:03;99712.0;;;11.2;100.0
64023;BME280;50264;52.088;5.296;2023-03-13T03:07:40;99712.0;;;11.3;100.0
64023;BME280;50264;52.088;5.296;2023-03-13T03:09:16;99702.0;;;11.27;100.0
64023;BME280;50264;52.088;5.296;2023-03-13T03:10:53;99689.0;;;11.34;100.0
64023;BME280;50264;52.088;5.296;2023-03-13T03:14:06;99699.0;;;11.33;100.0
64023;BME280;50264;52.088;5.296;2023-03-13T03:15:43;99701.0;;;11.43;100.0
64023;BME280;50264;52.088;5.296;2023-03-13T03:17:19;99691.0;;;11.42;100.0
64023;BME280;50264;52.088;5.296;2023-03-13T03:20:31;99705.0;;;11.46;100.0
64023;BME280;50264;52.088;5.296;2023-03-13T03:22:08;99699.0;;;11.47;100.0
64023;BME280;50264;52.088;5.296;2023-03-13T03:23:45;99697.0;;;11.47;100.0
64023;BME280;50264;52.088;5.296;2023-03-13T03:25:21;99684.0;;;11.57;100.0
64023;BME280;50264;52.088;5.296;2023-03-13T03:28:33;99692.0;;;11.63;100.0
64023;BME280;50264;52.088;5.296;2023-03-13T03:30:10;99684.0;;;11.67;100.0
64023;BME280;50264;52.088;5.296;2023-03-13T03:31:46;99680.0;;;11.79;100.0
64023;BME280;50264;52.088;5.296;2023-03-13T03:34:59;99677.0;;;11.81;100.0
64023;BME280;50264;52.088;5.296;2023-03-13T03:36:36;99677.0;;;11.8;100.0
64023;BME280;50264;52.088;5.296;2023-03-13T03:38:12;99675.0;;;11.81;100.0
64023;BME280;50264;52.088;5.296;2023-03-13T03:41:24;99675.0;;;11.86;100.0
64023;BME280;50264;52.088;5.296;2023-03-13T03:43:00;99672.0;;;11.74;100.0
64023;BME280;50264;52.088;5.296;2023-03-13T03:44:36;99670.0;;;11.86;100.0
64023;BME280;50264;52.088;5.296;2023-03-13T03:47:50;99668.0;;;11.9;100.0
64023;BME280;50264;52.088;5.296;2023-03-13T03:49:26;99664.0;;;11.95;100.0
64023;BME280;50264;52.088;5.296;2023-03-13T03:51:02;99677.0;;;11.95;100.0
64023;BME280;50264;52.088;5.296;2023-03-13T03:52:39;99667.0;;;11.91;100.0
64023;BME280;50264;52.088;5.296;2023-03-13T03:55:51;99658.0;;;11.9;100.0
64023;BME280;50264;52.088;5.296;2023-03-13T03:57:27;99664.0;;;11.99;100.0
64023;BME280;50264;52.088;5.296;2023-03-13T03:59:03;99659.0;;;12.03;100.0
64023;BME280;50264;52.088;5.296;2023-03-13T04:02:19;99666.0;;;12.02;100.0
64023;BME280;50264;52.088;5.296;2023-03-13T04:03:55;99658.0;;;12.03;100.0
64023;BME280;50264;52.088;5.296;2023-03-13T04:05:31;99655.0;;;12.06;100.0
64023;BME280;50264;52.088;5.296;2023-03-13T04:08:43;99657.0;;;12.06;100.0
64023;BME280;50264;52.088;5.296;2023-03-13T04:10:19;99650.0;;;12.07;100.0
64023;BME280;50264;52.088;5.296;2023-03-13T04:11:55;99651.0;;;12.12;100.0
64023;BME280;50264;52.088;5.296;2023-03-13T04:13:31;99642.0;;;12.09;100.0
64023;BME280;50264;52.088;5.296;2023-03-13T04:16:45;99635.0;;;12.1;100.0
64023;BME280;50264;52.088;5.296;2023-03-13T04:18:21;99634.0;;;12.14;100.0
64023;BME280;50264;52.088;5.296;2023-03-13T04:19:57;99640.0;;;12.23;100.0
64023;BME280;50264;52.088;5.296;2023-03-13T04:23:09;99644.0;;;12.23;100.0
64023;BME280;50264;52.088;5.296;2023-03-13T04:24:46;99636.0;;;12.1;100.0
64023;BME280;50264;52.088;5.296;2023-03-13T04:26:22;99630.0;;;12.12;100.0
64023;BME280;50264;52.088;5.296;2023-03-13T04:29:35;99627.0;;;12.19;100.0
64023;BME280;50264;52.088;5.296;2023-03-13T04:31:11;99619.0;;;12.12;100.0
64023;BME280;50264;52.088;5.296;2023-03-13T04:32:47;99622.0;;;12.21;100.0
64023;BME280;50264;52.088;5.296;2023-03-13T04:34:23;99613.0;;;12.22;100.0
64023;BME280;50264;52.088;5.296;2023-03-13T04:37:35;99617.0;;;12.29;100.0
64023;BME280;50264;52.088;5.296;2023-03-13T04:39:11;99617.0;;;12.32;100.0
64023;BME280;50264;52.088;5.296;2023-03-13T04:40:47;99615.0;;;12.28;100.0
64023;BME280;50264;52.088;5.296;2023-03-13T04:44:00;99622.0;;;12.25;100.0
64023;BME280;50264;52.088;5.296;2023-03-13T04:45:36;99599.0;;;12.29;100.0
64023;BME280;50264;52.088;5.296;2023-03-13T04:47:12;99598.0;;;12.24;100.0
64023;BME280;50264;52.088;5.296;2023-03-13T04:50:24;99602.0;;;12.26;100.0
64023;BME280;50264;52.088;5.296;2023-03-13T04:52:00;99606.0;;;12.33;100.0
64023;BME280;50264;52.088;5.296;2023-03-13T04:53:36;99603.0;;;12.32;100.0
64023;BME280;50264;52.088;5.296;2023-03-13T04:56:49;99596.0;;;12.4;100.0
64023;BME280;50264;52.088;5.296;2023-03-13T04:58:25;99598.0;;;12.41;100.0
64023;BME280;50264;52.088;5.296;2023-03-13T05:00:01;99608.0;;;12.37;100.0
64023;BME280;50264;52.088;5.296;2023-03-13T05:01:38;99595.0;;;12.48;100.0
64023;BME280;50264;52.088;5.296;2023-03-13T05:04:51;99605.0;;;12.55;100.0
64023;BME280;50264;52.088;5.296;2023-03-13T05:06:27;99603.0;;;12.53;100.0
64023;BME280;50264;52.088;5.296;2023-03-13T05:08:04;99598.0;;;12.6;100.0
64023;BME280;50264;52.088;5.296;2023-03-13T05:11:16;99586.0;;;12.63;100.0
64023;BME280;50264;52.088;5.296;2023-03-13T05:12:52;99600.0;;;12.62;100.0
64023;BME280;50264;52.088;5.296;2023-03-13T05:14:29;99587.0;;;12.6;100.0
64023;BME280;50264;52.088;5.296;2023-03-13T05:17:42;99599.0;;;12.69;100.0
64023;BME280;50264;52.088;5.296;2023-03-13T05:19:18;99600.0;;;12.65;100.0
64023;BME280;50264;52.088;5.296;2023-03-13T05:20:55;99600.0;;;12.69;100.0
64023;BME280;50264;52.088;5.296;2023-03-13T05:22:31;99591.0;;;12.67;100.0
64023;BME280;50264;52.088;5.296;2023-03-13T05:25:43;99595.0;;;12.67;100.0
64023;BME280;50264;52.088;5.296;2023-03-13T05:27:19;99589.0;;;12.63;100.0
64023;BME280;50264;52.088;5.296;2023-03-13T05:28:55;99590.0;;;12.67;100.0
64023;BME280;50264;52.088;5.296;2023-03-13T05:32:07;99595.0;;;12.8;99.78
64023;BME280;50264;52.088;5.296;2023-03-13T05:33:44;99586.0;;;12.75;98.79
64023;BME280;50264;52.088;5.296;2023-03-13T05:35:20;99586.0;;;12.85;98.25
64023;BME280;50264;52.088;5.296;2023-03-13T05:38:32;99575.0;;;12.86;97.37
64023;BME280;50264;52.088;5.296;2023-03-13T05:40:10;99585.0;;;12.93;96.03
64023;BME280;50264;52.088;5.296;2023-03-13T05:41:47;99587.0;;;12.92;95.81
64023;BME280;50264;52.088;5.296;2023-03-13T05:44:59;99572.0;;;12.9;95.08
64023;BME280;50264;52.088;5.296;2023-03-13T05:46:35;99586.0;;;13.03;94.46
64023;BME280;50264;52.088;5.296;2023-03-13T05:48:12;99580.0;;;13.04;94.22
64023;BME280;50264;52.088;5.296;2023-03-13T05:49:48;99581.0;;;12.99;94.23
64023;BME280;50264;52.088;5.296;2023-03-13T05:53:00;99580.0;;;12.95;94.39
64023;BME280;50264;52.088;5.296;2023-03-13T05:54:36;99581.0;;;12.95;93.58
64023;BME280;50264;52.088;5.296;2023-03-13T05:56:12;99568.0;;;13.02;93.42
64023;BME280;50264;52.088;5.296;2023-03-13T05:59:24;99564.0;;;13.09;93.25
64023;BME280;50264;52.088;5.296;2023-03-13T06:01:06;99555.0;;;13.1;93.04
64023;BME280;50264;52.088;5.296;2023-03-13T06:02:42;99555.0;;;13.14;92.51
64023;BME280;50264;52.088;5.296;2023-03-13T06:05:57;99555.0;;;13.1;92.13
64023;BME280;50264;52.088;5.296;2023-03-13T06:07:33;99555.0;;;13.08;92.32
64023;BME280;50264;52.088;5.296;2023-03-13T06:09:09;99557.0;;;13.18;92.02
64023;BME280;50264;52.088;5.296;2023-03-13T06:10:45;99557.0;;;13.11;92.0
64023;BME280;50264;52.088;5.296;2023-03-13T06:13:57;99551.0;;;13.13;92.17
64023;BME280;50264;52.088;5.296;2023-03-13T06:15:34;99547.0;;;13.1;92.65
64023;BME280;50264;52.088;5.296;2023-03-13T06:17:10;99549.0;;;13.15;92.81
64023;BME280;50264;52.088;5.296;2023-03-13T06:20:22;99537.0;;;13.06;92.49
64023;BME280;50264;52.088;5.296;2023-03-13T06:21:58;99546.0;;;13.01;93.22
64023;BME280;50264;52.088;5.296;2023-03-13T06:23:34;99552.0;;;13.07;92.36
64023;BME280;50264;52.088;5.296;2023-03-13T06:26:48;99538.0;;;13.11;92.85
64023;BME280;50264;52.088;5.296;2023-03-13T06:28:25;99531.0;;;13.01;93.08
64023;BME280;50264;52.088;5.296;2023-03-13T06:30:01;99546.0;;;12.94;93.39
64023;BME280;50264;52.088;5.296;2023-03-13T06:31:37;99545.0;;;13.05;92.87
64023;BME280;50264;52.088;5.296;2023-03-13T06:34:49;99542.0;;;13.07;92.92
64023;BME280;50264;52.088;5.296;2023-03-13T06:36:25;99548.0;;;13.17;92.28
64023;BME280;50264;52.088;5.296;2023-03-13T06:38:01;99540.0;;;13.09;91.97
64023;BME280;50264;52.088;5.296;2023-03-13T06:41:14;99542.0;;;13.11;91.84
64023;BME280;50264;52.088;5.296;2023-03-13T06:42:50;99555.0;;;13.14;91.28
64023;BME280;50264;52.088;5.296;2023-03-13T06:44:26;99539.0;;;13.23;90.87
64023;BME280;50264;52.088;5.296;2023-03-13T06:47:39;99538.0;;;13.27;91.34
64023;BME280;50264;52.088;5.296;2023-03-13T06:49:15;99546.0;;;13.25;90.44
64023;BME280;50264;52.088;5.296;2023-03-13T06:50:51;99542.0;;;13.28;90.43
64023;BME280;50264;52.088;5.296;2023-03-13T06:52:27;99537.0;;;13.28;90.45
64023;BME280;50264;52.088;5.296;2023-03-13T06:55:39;99550.0;;;13.3;89.97
64023;BME280;50264;52.088;5.296;2023-03-13T06:57:16;99555.0;;;13.33;90.48
64023;BME280;50264;52.088;5.296;2023-03-13T06:58:52;99538.0;;;13.33;90.06
64023;BME280;50264;52.088;5.296;2023-03-13T07:02:04;99544.0;;;13.26;90.45
64023;BME280;50264;52.088;5.296;2023-03-13T07:03:41;99548.0;;;13.3;90.57
64023;BME280;50264;52.088;5.296;2023-03-13T07:05:18;99555.0;;;13.29;91.34
64023;BME280;50264;52.088;5.296;2023-03-13T07:08:31;99548.0;;;13.29;91.07
64023;BME280;50264;52.088;5.296;2023-03-13T07:10:09;99553.0;;;13.26;91.63
64023;BME280;50264;52.088;5.296;2023-03-13T07:11:46;99546.0;;;13.28;92.07
64023;BME280;50264;52.088;5.296;2023-03-13T07:13:22;99553.0;;;13.11;92.98
64023;BME280;50264;52.088;5.296;2023-03-13T07:16:34;99562.0;;;13.1;93.6
64023;BME280;50264;52.088;5.296;2023-03-13T07:18:10;99563.0;;;13.18;93.88
64023;BME280;50264;52.088;5.296;2023-03-13T07:19:46;99560.0;;;13.11;94.38
64023;BME280;50264;52.088;5.296;2023-03-13T07:22:58;99559.0;;;13.03;95.53
64023;BME280;50264;52.088;5.296;2023-03-13T07:24:34;99563.0;;;12.94;95.66
64023;BME280;50264;52.088;5.296;2023-03-13T07:26:12;99570.0;;;12.99;95.77
64023;BME280;50264;52.088;5.296;2023-03-13T07:29:27;99555.0;;;12.94;96.01
64023;BME280;50264;52.088;5.296;2023-03-13T07:31:04;99527.0;;;12.85;96.6
64023;BME280;50264;52.088;5.296;2023-03-13T07:32:41;99570.0;;;12.86;97.45
64023;BME280;50264;52.088;5.296;2023-03-13T07:35:53;99575.0;;;12.79;98.1
64023;BME280;50264;52.088;5.296;2023-03-13T07:37:29;99570.0;;;12.79;98.2
64023;BME280;50264;52.088;5.296;2023-03-13T07:39:05;99568.0;;;12.78;98.59
64023;BME280;50264;52.088;5.296;2023-03-13T07:40:47;99572.0;;;12.71;99.51
64023;BME280;50264;52.088;5.296;2023-03-13T07:43:59;99566.0;;;12.72;99.87
64023;BME280;50264;52.088;5.296;2023-03-13T07:45:35;99560.0;;;12.69;99.87
64023;BME280;50264;52.088;5.296;2023-03-13T07:47:12;99564.0;;;12.69;99.83
64023;BME280;50264;52.088;5.296;2023-03-13T07:50:24;99571.0;;;12.72;99.82
64023;BME280;50264;52.088;5.296;2023-03-13T07:52:00;99594.0;;;12.71;99.58
64023;BME280;50264;52.088;5.296;2023-03-13T07:53:36;99573.0;;;12.69;100.0
64023;BME280;50264;52.088;5.296;2023-03-13T07:55:12;99567.0;;;12.62;100.0
64023;BME280;50264;52.088;5.296;2023-03-13T07:58:26;99569.0;;;12.65;100.0
64023;BME280;50264;52.088;5.296;2023-03-13T08:00:04;99573.0;;;12.75;100.0
64023;BME280;50264;52.088;5.296;2023-03-13T08:01:40;99573.0;;;12.63;99.96
64023;BME280;50264;52.088;5.296;2023-03-13T08:04:53;99590.0;;;12.65;100.0
64023;BME280;50264;52.088;5.296;2023-03-13T08:06:31;99580.0;;;12.75;100.0
64023;BME280;50264;52.088;5.296;2023-03-13T08:08:08;99581.0;;;12.81;99.59
64023;BME280;50264;52.088;5.296;2023-03-13T08:11:22;99572.0;;;12.78;99.86
64023;BME280;50264;52.088;5.296;2023-03-13T08:12:59;99580.0;;;12.74;100.0
64023;BME280;50264;52.088;5.296;2023-03-13T08:14:35;99578.0;;;12.79;100.0
64023;BME280;50264;52.088;5.296;2023-03-13T08:16:12;99567.0;;;12.64;100.0
64023;BME280;50264;52.088;5.296;2023-03-13T08:19:26;99564.0;;;12.65;100.0
64023;BME280;50264;52.088;5.296;2023-03-13T08:21:05;99569.0;;;12.65;100.0
64023;BME280;50264;52.088;5.296;2023-03-13T08:22:41;99563.0;;;12.64;100.0
64023;BME280;50264;52.088;5.296;2023-03-13T08:25:54;99568.0;;;12.59;100.0
64023;BME280;50264;52.088;5.296;2023-03-13T08:27:30;99553.0;;;12.56;100.0
64023;BME280;50264;52.088;5.296;2023-03-13T08:29:08;99549.0;;;12.53;100.0
64023;BME280;50264;52.088;5.296;2023-03-13T08:32:21;99549.0;;;12.48;100.0
64023;BME280;50264;52.088;5.296;2023-03-13T08:33:58;99558.0;;;12.58;100.0
64023;BME280;50264;52.088;5.296;2023-03-13T08:35:34;99542.0;;;12.5;100.0
64023;BME280;50264;52.088;5.296;2023-03-13T08:37:14;99536.0;;;12.46;100.0
64023;BME280;50264;52.088;5.296;2023-03-13T08:40:28;99543.0;;;12.54;100.0
64023;BME280;50264;52.088;5.296;2023-03-13T08:42:06;99535.0;;;12.56;100.0
64023;BME280;50264;52.088;5.296;2023-03-13T08:43:44;99530.0;;;12.58;100.0
64023;BME280;50264;52.088;5.296;2023-03-13T08:46:56;99513.0;;;12.54;100.0
64023;BME280;50264;52.088;5.296;2023-03-13T08:48:33;99506.0;;;12.55;100.0
64023;BME280;50264;52.088;5.296;2023-03-13T08:50:10;99507.0;;;12.58;100.0
64023;BME280;50264;52.088;5.296;2023-03-13T08:51:46;99508.0;;;12.61;100.0
64023;BME280;50264;52.088;5.296;2023-03-13T08:54:58;99507.0;;;12.55;100.0
64023;BME280;50264;52.088;5.296;2023-03-13T08:56:35;99487.0;;;12.66;100.0
64023;BME280;50264;52.088;5.296;2023-03-13T08:58:11;99500.0;;;12.72;100.0
64023;BME280;50264;52.088;5.296;2023-03-13T09:01:26;99512.0;;;12.73;100.0
64023;BME280;50264;52.088;5.296;2023-03-13T09:03:03;99505.0;;;12.81;100.0
64023;BME280;50264;52.088;5.296;2023-03-13T09:04:39;99524.0;;;12.83;100.0
64023;BME280;50264;52.088;5.296;2023-03-13T09:07:52;99519.0;;;12.77;100.0
64023;BME280;50264;52.088;5.296;2023-03-13T09:09:29;99515.0;;;12.83;100.0
64023;BME280;50264;52.088;5.296;2023-03-13T09:11:07;99511.0;;;12.93;100.0
64023;BME280;50264;52.088;5.296;2023-03-13T09:12:44;99511.0;;;12.97;99.64
64023;BME280;50264;52.088;5.296;2023-03-13T09:15:57;99499.0;;;13.01;98.97
64023;BME280;50264;52.088;5.296;2023-03-13T09:17:34;99486.0;;;13.12;98.27
64023;BME280;50264;52.088;5.296;2023-03-13T09:19:10;99481.0;;;13.2;96.6
64023;BME280;50264;52.088;5.296;2023-03-13T09:22:23;99470.0;;;13.41;97.1
64023;BME280;50264;52.088;5.296;2023-03-13T09:23:59;99482.0;;;13.49;95.87
64023;BME280;50264;52.088;5.296;2023-03-13T09:25:36;99465.0;;;13.53;93.41
64023;BME280;50264;52.088;5.296;2023-03-13T09:28:50;99468.0;;;13.69;92.25
64023;BME280;50264;52.088;5.296;2023-03-13T09:30:26;99511.0;;;13.82;92.52
64023;BME280;50264;52.088;5.296;2023-03-13T09:32:03;99469.0;;;13.93;90.25
64023;BME280;50264;52.088;5.296;2023-03-13T09:33:39;99474.0;;;14.15;89.7
64023;BME280;50264;52.088;5.296;2023-03-13T09:36:52;99450.0;;;14.12;87.54
64023;BME280;50264;52.088;5.296;2023-03-13T09:38:28;99463.0;;;14.18;89.23
64023;BME280;50264;52.088;5.296;2023-03-13T09:40:05;99458.0;;;14.11;88.45
64023;BME280;50264;52.088;5.296;2023-03-13T09:43:36;99453.0;;;14.22;88.25
64023;BME280;50264;52.088;5.296;2023-03-13T09:45:17;99455.0;;;14.29;87.93
64023;BME280;50264;52.088;5.296;2023-03-13T09:47:10;99457.0;;;14.25;85.93
64023;BME280;50264;52.088;5.296;2023-03-13T09:48:54;99464.0;;;14.22;84.69
64023;BME280;50264;52.088;5.296;2023-03-13T09:50:33;99442.0;;;14.36;85.12
64023;BME280;50264;52.088;5.296;2023-03-13T09:53:56;99455.0;;;14.38;85.48
64023;BME280;50264;52.088;5.296;2023-03-13T09:55:35;99447.0;;;14.46;85.6
64023;BME280;50264;52.088;5.296;2023-03-13T09:57:19;99430.0;;;14.52;84.54
64023;BME280;50264;52.088;5.296;2023-03-13T09:59:02;99425.0;;;14.57;83.38
64023;BME280;50264;52.088;5.296;2023-03-13T10:00:47;99432.0;;;14.67;83.33
64023;BME280;50264;52.088;5.296;2023-03-13T10:04:15;99437.0;;;14.87;83.06
64023;BME280;50264;52.088;5.296;2023-03-13T10:06:03;99419.0;;;15.02;82.55
64023;BME280;50264;52.088;5.296;2023-03-13T10:07:41;99431.0;;;15.21;82.86
64023;BME280;50264;52.088;5.296;2023-03-13T10:09:19;99407.0;;;15.34;80.39
64023;BME280;50264;52.088;5.296;2023-03-13T10:12:48;99403.0;;;15.5;80.7
64023;BME280;50264;52.088;5.296;2023-03-13T10:14:29;99399.0;;;15.52;78.2
64023;BME280;50264;52.088;5.296;2023-03-13T10:16:08;99412.0;;;15.56;78.39
64023;BME280;50264;52.088;5.296;2023-03-13T10:17:47;99398.0;;;15.52;77.58
64023;BME280;50264;52.088;5.296;2023-03-13T10:21:14;99405.0;;;15.49;77.62
64023;BME280;50264;52.088;5.296;2023-03-13T10:22:55;99395.0;;;15.44;76.74
64023;BME280;50264;52.088;5.296;2023-03-13T10:24:39;99407.0;;;15.46;78.41
64023;BME280;50264;52.088;5.296;2023-03-13T10:26:22;99401.0;;;15.38;76.91
64023;BME280;50264;52.088;5.296;2023-03-13T10:28:01;99399.0;;;15.47;78.02
64023;BME280;50264;52.088;5.296;2023-03-13T10:31:19;99399.0;;;15.51;76.69
64023;BME280;50264;52.088;5.296;2023-03-13T10:33:17;99388.0;;;15.43;75.83
64023;BME280;50264;52.088;5.296;2023-03-13T10:34:56;99399.0;;;15.45;75.59
64023;BME280;50264;52.088;5.296;2023-03-13T10:36:39;99405.0;;;15.47;76.45
64023;BME280;50264;52.088;5.296;2023-03-13T10:40:11;99406.0;;;15.29;76.24
64023;BME280;50264;52.088;5.296;2023-03-13T10:41:50;99397.0;;;15.33;75.59
64023;BME280;50264;52.088;5.296;2023-03-13T10:43:32;99402.0;;;15.39;76.09
64023;BME280;50264;52.088;5.296;2023-03-13T10:45:14;99394.0;;;15.46;73.36
64023;BME280;50264;52.088;5.296;2023-03-13T10:46:51;99419.0;;;15.36;72.05
64023;BME280;50264;52.088;5.296;2023-03-13T10:50:17;99406.0;;;15.38;72.95
64023;BME280;50264;52.088;5.296;2023-03-13T10:51:57;99402.0;;;15.45;74.41
64023;BME280;50264;52.088;5.296;2023-03-13T10:53:36;99416.0;;;15.4;73.36
64023;BME280;50264;52.088;5.296;2023-03-13T10:55:16;99382.0;;;15.26;74.8
64023;BME280;50264;52.088;5.296;2023-03-13T10:58:46;99381.0;;;15.3;74.47
64023;BME280;50264;52.088;5.296;2023-03-13T11:00:32;99380.0;;;15.32;75.58
64023;BME280;50264;52.088;5.296;2023-03-13T11:02:20;99395.0;;;15.38;75.37
64023;BME280;50264;52.088;5.296;2023-03-13T11:03:58;99375.0;;;15.5;73.2
64023;BME280;50264;52.088;5.296;2023-03-13T11:05:55;99382.0;;;15.62;73.14
64023;BME280;50264;52.088;5.296;2023-03-13T11:09:13;99380.0;;;15.62;72.05
64023;BME280;50264;52.088;5.296;2023-03-13T11:10:55;99367.0;;;15.8;70.31
64023;BME280;50264;52.088;5.296;2023-03-13T11:12:33;99364.0;;;16.03;70.61
64023;BME280;50264;52.088;5.296;2023-03-13T11:14:13;99363.0;;;16.21;68.84